Warning: Javascript must be enabled to use all the features on this page!


Page Loading - Please Wait...

Click to hideNews Bulletins
  • Explore the NEW USGS National Water Dashboard interactive map to access real-time water data from over 13,500 stations nationwide.
  • Full News RSS icon
  • USGS has scheduled planned maintenance to our IT infrastructure, starting Tuesday, June 28, 2022, from 8:00-10:00am Eastern Daylight Time (EDT). During the maintenance period, there will be a short interruption in the availability of the most recent time-series data. Any backlog will be made available following conclusion of the scheduled maintenance.

Peak Streamflow for the Nation

USGS 09132500 NORTH FORK GUNNISON RIVER NEAR SOMERSET, CO.

Gunnison County, Colorado
Hydrologic Unit Code 14020004
Latitude  38°55'33", Longitude 107°26'01" NAD27
Drainage area 525  square miles
Gage datum 6,280.00 feet above NGVD29
Output formats
Table
Graph
Tab-separated file
peakfq (watstore) format
Reselect output format
Water
Year
Date Gage
Height
(feet)
Stream-
flow
(cfs)
1934 1934-05-12 3.00 1,400
1935 1935-06-13 4.67 3,120
1936 1936-05-06 5.15 3,780
1937 1937-05-15 5.29 4,720
1938 1938-05-16 5.62 5,360
1939 1939-05-05 4.17 2,690
1940 1940-05-12 4.24 2,790
1941 1941-05-13 6.30 5,850
1942 1942-05-27 5.48 4,620
1943 1943-05-01 4.55 3,060
1944 1944-05-16 5.68 5,830
1945 1945-05-13 4.82 3,770
1946 1946-04-25 3.85 2,330
1947 1947-05-07 4.72 3,830
1948 1948-05-20 5.01 4,450
1949 1949-05-03 4.05 3,070
1950 1950-05-21 4.28 3,240
1951 1951-05-27 4.26 3,210
1952 1952-05-04 5.90 5,320
1953 1953-05-28 4.56 3,660
1954 1954-05-20 2.61 1,150
1955 1955-05-14 3.84 2,700
1956 1956-05-06 4.02 2,940
1957 1957-06-04 6.14 7,860
1958 1958-06-06 4.542 3,920
1959 1959-05-15 3.60 2,390
1960 1960-05-13 4.23 3,370
1961 1961-05-23 3.58 2,3205
1962 1962-05-13 4.95 4,8805
1963 1963-05-08 3.28 1,8805
1964 1964-05-20 4.96 4,9505
1965 1965-05-22 4.84 4,4405
1966 1966-05-05 3.72 2,2205
1967 1967-05-23 3.94 2,7305
1968 1968-06-05 4.49 3,6905
1969 1969-04-24 4.12 3,0505
1970 1970-05-22 4.43 3,5705
1971 1971-05-17 3.88 2,3205
1972 1972-06-09 3.886 1,9305
1973 1973-05-21 5.83 6,5805
1974 1974-05-08 5.39 5,1305
1975 1975-05-20 4.84 3,7205
1976 1976-05-17 4.52 2,9005
1977 1977-06-02 2.34 5955
1978 1978-05-17 4.93 3,5405
1979 1979-05-28 6.73 6,7205
1980 1980-05-23 5.23 4,7005
1981 1981-05-03 3.97 2,1105
1982 1982-05-04   2,9501,5
1983 1983-05-31 6.646 6,5805
1984 1984-05-24 8.20 9,2205
1985 1985-05-27 6.75 5,7605
1986 1986-05-24 5.74 4,0005
1987 1987-04-28 5.11 2,8205
1988 1988-06-06 4.48 1,6905
1989 1989-04-21 4.81 2,0805
1990 1990-06-06 4.39 1,4905
1991 1991-05-21 5.62 3,4805
1992 1992-05-27 4.85 2,2905
1993 1993-05-27 7.67 8,6105
1994 1994-05-12 5.20 2,9105
1995 1995-06-17 6.56 5,6605
1996 1996-05-17 5.21 3,2305
1997 1997-05-15 5.42 3,5905
1998 1998-05-21 5.00 3,3805
1999 1999-05-23 4.46 2,6505
2000 2000-05-05 4.30 2,2805
2001 2001-05-01 4.25 2,0005
2002 2002-06-01 3.26 7665
2003 2003-05-28 5.15 3,7105
2004 2004-05-13 4.57 2,5405
2005 2005-05-22 5.99 5,5405
2006 2006-05-23 4.73 2,8605
2007 2007-05-15 4.39 2,3005
2008 2008-05-21 5.83 4,5905
2009 2009-05-07 5.33 3,8105
2010 2010-06-06 4.91 3,2005
2011 2011-06-07 5.64 4,9305
2012 2012-04-28 3.24 1,1105
2013 2013-05-18 4.40 2,6605
2014 2014-06-02 4.94 3,7505
2015 2015-06-11 5.21 4,3405
2016 2016-05-16 4.29 2,5905
2017 2017-05-14 4.58 3,1105
2018 2018-05-11 3.51 1,4605
2019 2019-06-09 4.96 3,8005
2020 2020-05-19 3.52 1,7205
2021 2021-06-04 3.122 1,2005
?
  Peak Gage-Height Qualification Codes.
?
  Peak Streamflow Qualification Codes.